ECU Airport (Edwards County) Information

FAA: ECU - ICAO: KECU

ECU Airport Location

State Texas
County Edwards
City Rocksprings
ECU Airport is 4 miles southeast of Rocksprings, TX.
Latitude 29-56-48.9105N
Longitude 100-10-25.8768W
Elevation 2,372ft

KECU Airport METARs

METAR KECU 072115Z AUTO 15010KT 10SM SCT015 OVC035 21/17 A3018 RMK AO2
Altimeter 30.18"
Temperature 21.0°C (69.8°F)
Wind 150° at 10KT
Clouds scattered at 1,500ft overcast at 3,500ft
Visibility 10.0mi
Time observed: 2022-12-07T21:15:00Z

ECU Airport Details

Status Operational
Activation February 1977
Ownership Public
Usage Public
Chart SAN ANTONIO
ATC on-site No
Beacon schedule sunset-sunrise
Beacon color clear green

ECU Airport Contacts

Owner COUNTY OF EDWARDS
Owner address EDWARDS CTY COURTHOUSE, ROCKSPRINGS, TX 78880
Owner phone 830-683-6122
Manager ED GLINKSKY
Manager address 2179 COUNTY ROAD 4421, RHOME, TX 76078
Manager phone (940) 627-2494

ECU Airport (Edwards County) Radio Frequencies

ECU (Airport) Radio Frequencies

UNICOM N/A
Common traffic advisory frequency (CTAF) 122.9